Time;durP1;ratioP1;P1;durP2;ratioP2;P2;SDS_P1;SDS_P2;PMS_P1;PMS_P2;Temp;Humidity;BMP_temperature;BMP_pressure;BME280_temperature;BME280_humidity;BME280_pressure;Samples;Min_cycle;Max_cycle;Signal;HPM_P1;HPM_P2
2024/01/10 00:00:46;;;;;;;11.63;7.80;;;1.70;82.90;;;;;;5036616;28;20532;-32
2024/01/10 00:03:14;;;;;;;13.25;7.00;;;1.70;82.80;;;;;;5018445;28;20185;-37
2024/01/10 00:05:40;;;;;;;9.60;6.80;;;1.70;82.80;;;;;;5035760;28;20269;-38
2024/01/10 00:08:06;;;;;;;9.35;6.25;;;1.70;82.80;;;;;;5021051;28;20520;-36
2024/01/10 00:10:34;;;;;;;11.18;5.75;;;1.70;82.90;;;;;;5039243;28;20206;-34
2024/01/10 00:13:00;;;;;;;8.95;6.90;;;1.70;82.90;;;;;;5038425;28;20812;-36
2024/01/10 00:15:26;;;;;;;8.32;6.63;;;1.70;82.80;;;;;;5030561;28;20192;-37
2024/01/10 00:17:55;;;;;;;7.80;6.47;;;1.70;82.80;;;;;;5038257;28;20749;-34
2024/01/10 00:20:29;;;;;;;8.18;6.38;;;1.70;82.80;;;;;;5038125;28;20212;-36
2024/01/10 00:22:55;;;;;;;9.90;6.10;;;1.60;82.90;;;;;;5031523;28;20203;-36
2024/01/10 00:25:23;;;;;;;9.93;6.87;;;1.60;82.90;;;;;;5037902;28;20394;-38
2024/01/10 00:27:49;;;;;;;9.55;6.60;;;1.60;83.00;;;;;;5038974;28;20444;-35
2024/01/10 00:30:15;;;;;;;10.82;7.32;;;1.60;83.00;;;;;;5039165;28;20714;-34
2024/01/10 00:32:46;;;;;;;9.35;6.47;;;1.60;83.00;;;;;;5043244;28;20270;-37
2024/01/10 00:35:12;;;;;;;10.27;6.70;;;1.60;82.80;;;;;;5041756;28;20220;-39
2024/01/10 00:37:38;;;;;;;9.63;7.15;;;1.60;82.90;;;;;;5041773;28;20249;-36
2024/01/10 00:40:05;;;;;;;10.87;7.20;;;1.60;83.00;;;;;;5043093;28;20189;-33
2024/01/10 00:42:31;;;;;;;10.05;6.47;;;1.60;83.10;;;;;;5038849;28;20958;-37
2024/01/10 00:44:57;;;;;;;8.35;6.05;;;1.60;83.00;;;;;;5043008;28;20258;-34
2024/01/10 00:47:23;;;;;;;10.70;6.60;;;1.60;82.80;;;;;;5043560;28;20188;-36
2024/01/10 00:49:49;;;;;;;9.53;6.57;;;1.60;83.60;;;;;;5042780;28;20831;-36
2024/01/10 00:52:15;;;;;;;8.38;5.85;;;1.60;82.90;;;;;;5042929;28;20426;-38
2024/01/10 00:54:43;;;;;;;8.85;6.60;;;1.60;83.00;;;;;;5042253;28;20215;-37
2024/01/10 00:57:09;;;;;;;8.35;6.78;;;1.60;82.90;;;;;;5042596;28;20300;-37
2024/01/10 00:59:35;;;;;;;8.50;6.30;;;1.60;82.90;;;;;;5007209;28;20213;-35
2024/01/10 01:02:01;;;;;;;9.27;6.30;;;1.60;82.90;;;;;;5042547;28;20946;-39
2024/01/10 01:04:29;;;;;;;8.25;5.45;;;1.60;82.70;;;;;;5042138;28;20627;-32
2024/01/10 01:06:55;;;;;;;7.57;5.80;;;1.60;82.70;;;;;;5042473;28;20208;-36
2024/01/10 01:09:21;;;;;;;8.10;6.10;;;1.60;82.70;;;;;;5039579;28;21328;-41
2024/01/10 01:11:47;;;;;;;8.35;6.30;;;1.60;82.70;;;;;;5040749;28;20429;-35
2024/01/10 01:14:14;;;;;;;6.87;5.70;;;1.60;82.80;;;;;;5041549;28;20208;-35
2024/01/10 01:16:42;;;;;;;11.18;7.00;;;1.50;82.80;;;;;;5040687;28;20427;-40
2024/01/10 01:19:08;;;;;;;7.10;6.10;;;1.60;82.80;;;;;;5036123;28;20254;-40
2024/01/10 01:21:34;;;;;;;8.48;6.07;;;1.60;82.90;;;;;;5039066;28;20192;-39
2024/01/10 01:24:03;;;;;;;8.90;5.80;;;1.50;82.60;;;;;;5041710;28;20288;-37
2024/01/10 01:26:29;;;;;;;10.68;6.50;;;1.50;82.60;;;;;;5043512;28;20441;-34
2024/01/10 01:28:55;;;;;;;7.10;5.63;;;1.60;82.60;;;;;;5042506;28;20196;-37
2024/01/10 01:31:21;;;;;;;8.38;6.28;;;1.60;82.60;;;;;;5042079;28;20447;-39
2024/01/10 01:33:47;;;;;;;7.00;5.40;;;1.50;83.40;;;;;;5040238;28;20226;-36
2024/01/10 01:36:13;;;;;;;8.37;6.37;;;1.50;82.60;;;;;;5041587;28;20947;-36
2024/01/10 01:38:41;;;;;;;9.40;6.43;;;1.50;82.80;;;;;;5042188;28;20446;-39
2024/01/10 01:41:10;;;;;;;7.95;5.70;;;1.50;82.60;;;;;;5036926;28;20169;-39
2024/01/10 01:43:38;;;;;;;10.57;6.63;;;1.50;82.30;;;;;;5042077;28;20656;-39
2024/01/10 01:46:04;;;;;;;8.35;5.85;;;1.50;82.40;;;;;;5040431;28;20208;-35
2024/01/10 01:48:30;;;;;;;9.55;6.40;;;1.50;82.60;;;;;;5004430;28;20268;-38
2024/01/10 01:51:06;;;;;;;8.55;6.85;;;1.50;82.50;;;;;;5040259;28;20338;-38
2024/01/10 01:53:37;;;;;;;8.60;5.75;;;1.50;82.50;;;;;;5068233;22;20333;-79
2024/01/10 01:56:07;;;;;;;12.27;7.43;;;1.50;82.50;;;;;;5044622;28;20200;-83
2024/01/10 01:58:34;;;;;;;11.13;6.25;;;1.50;82.60;;;;;;5072428;28;20219;-83
2024/01/10 02:01:06;;;;;;;9.63;6.25;;;1.50;82.60;;;;;;5062603;28;20193;-83
2024/01/10 02:03:35;;;;;;;7.47;5.97;;;1.50;82.70;;;;;;5052156;28;20208;-83
2024/01/10 02:06:07;;;;;;;8.73;6.57;;;1.50;82.70;;;;;;5051977;28;20204;-83
2024/01/10 02:08:37;;;;;;;9.68;6.53;;;1.50;82.70;;;;;;5032707;28;20216;-82
2024/01/10 02:11:08;;;;;;;10.38;5.80;;;1.50;82.60;;;;;;5034982;28;20192;-81
2024/01/10 02:13:35;;;;;;;8.65;5.63;;;1.50;82.60;;;;;;5035272;28;20218;-78
2024/01/10 02:16:06;;;;;;;8.70;5.88;;;1.50;82.50;;;;;;5035318;28;20197;-82
2024/01/10 02:18:38;;;;;;;8.50;6.32;;;1.50;82.60;;;;;;5035103;28;20305;-81
2024/01/10 02:21:08;;;;;;;10.10;6.50;;;1.40;82.40;;;;;;5018455;28;20245;-82
2024/01/10 02:23:34;;;;;;;7.25;5.63;;;1.50;82.30;;;;;;5051609;28;20204;-83
2024/01/10 02:26:00;;;;;;;8.40;6.27;;;1.50;82.20;;;;;;5068349;28;20192;-83
2024/01/10 02:28:26;;;;;;;7.70;6.03;;;1.50;82.20;;;;;;5035191;28;20522;-83
2024/01/10 02:30:57;;;;;;;12.35;6.63;;;1.50;82.30;;;;;;5019650;28;20199;-82
2024/01/10 02:33:23;;;;;;;8.73;6.32;;;1.50;82.30;;;;;;5057520;28;20208;-82
2024/01/10 02:35:56;;;;;;;7.93;6.10;;;1.50;82.40;;;;;;5056208;28;20233;-80
2024/01/10 02:38:24;;;;;;;8.73;6.45;;;1.40;82.60;;;;;;5039732;28;20684;-81
2024/01/10 02:41:02;;;;;;;6.97;5.45;;;1.40;82.70;;;;;;5061203;28;20188;-81
2024/01/10 02:43:31;;;;;;;6.28;5.38;;;1.40;82.60;;;;;;5057102;28;20188;-82
2024/01/10 02:45:57;;;;;;;9.90;6.33;;;1.40;82.70;;;;;;5036670;28;20224;-83
2024/01/10 02:48:28;;;;;;;8.88;5.88;;;1.40;82.80;;;;;;5063008;28;20474;-84
2024/01/10 02:51:01;;;;;;;10.63;6.32;;;1.40;83.40;;;;;;5040240;28;20192;-82
2024/01/10 02:53:34;;;;;;;13.57;6.63;;;1.40;82.60;;;;;;5061031;28;20234;-82
2024/01/10 02:56:00;;;;;;;10.15;6.50;;;1.40;82.60;;;;;;5056979;28;20200;-82
2024/01/10 02:58:31;;;;;;;11.07;5.50;;;1.40;82.70;;;;;;5057896;28;20592;-82
2024/01/10 03:01:01;;;;;;;6.93;5.50;;;1.40;82.90;;;;;;5057668;28;20204;-83
2024/01/10 03:03:27;;;;;;;9.82;6.00;;;1.40;82.90;;;;;;5019506;28;20211;-82
2024/01/10 03:05:53;;;;;;;10.83;6.87;;;1.40;83.00;;;;;;5033847;28;20891;-83
2024/01/10 03:08:27;;;;;;;7.50;6.13;;;1.40;83.00;;;;;;5039985;28;20453;-81
2024/01/10 03:11:02;;;;;;;6.68;5.65;;;1.40;82.90;;;;;;5046518;28;20184;-82
2024/01/10 03:13:33;;;;;;;7.85;5.97;;;1.40;82.90;;;;;;5037216;28;20227;-82
2024/01/10 03:16:03;;;;;;;7.88;5.75;;;1.40;82.90;;;;;;5047442;28;20185;-81
2024/01/10 03:18:31;;;;;;;10.60;6.80;;;1.40;83.00;;;;;;5024370;28;20203;-83
2024/01/10 03:20:57;;;;;;;11.53;5.83;;;1.40;83.00;;;;;;5072412;28;20520;-83
2024/01/10 03:23:27;;;;;;;7.97;5.50;;;1.40;83.00;;;;;;5057515;28;20512;-82
2024/01/10 03:25:53;;;;;;;10.13;5.55;;;1.40;83.10;;;;;;5038772;28;20449;-81
2024/01/10 03:28:21;;;;;;;11.70;6.50;;;1.40;82.90;;;;;;5033622;28;20281;-83
2024/01/10 03:30:49;;;;;;;7.33;6.10;;;1.40;83.00;;;;;;5025203;28;20871;-82
2024/01/10 03:33:17;;;;;;;8.35;6.10;;;1.40;83.00;;;;;;5050234;28;20455;-83
2024/01/10 03:35:58;;;;;;;9.60;6.22;;;1.40;83.00;;;;;;5033747;28;20206;-81
2024/01/10 03:38:29;;;;;;;10.63;5.82;;;1.40;82.90;;;;;;5039406;28;20184;-83
2024/01/10 03:40:59;;;;;;;7.65;5.72;;;1.40;82.90;;;;;;5035005;28;20204;-83
2024/01/10 03:43:25;;;;;;;9.33;6.67;;;1.40;83.00;;;;;;5034677;28;20227;-83
2024/01/10 03:45:58;;;;;;;7.72;5.05;;;1.40;82.90;;;;;;5038402;28;20433;-83
2024/01/10 03:48:26;;;;;;;6.95;5.15;;;1.40;82.90;;;;;;5053955;28;20758;-83
2024/01/10 03:50:56;;;;;;;9.85;6.00;;;1.40;82.70;;;;;;5051149;28;20203;-83
2024/01/10 03:53:25;;;;;;;8.70;6.22;;;1.40;82.80;;;;;;5049953;28;20557;-82
2024/01/10 03:55:51;;;;;;;7.35;5.32;;;1.40;82.90;;;;;;5049660;28;20261;-83
2024/01/10 03:58:24;;;;;;;7.30;5.40;;;1.30;82.90;;;;;;5050037;28;20185;-83
2024/01/10 04:00:52;;;;;;;8.57;6.25;;;1.40;83.10;;;;;;5035570;28;20285;-83
2024/01/10 04:03:24;;;;;;;8.15;6.18;;;1.40;82.90;;;;;;5033112;28;20227;-83
2024/01/10 04:05:52;;;;;;;7.03;6.13;;;1.40;82.80;;;;;;5065464;28;20185;-83
2024/01/10 04:08:20;;;;;;;6.30;5.45;;;1.40;82.90;;;;;;5035733;28;20604;-80
2024/01/10 04:10:53;;;;;;;11.02;6.95;;;1.40;82.90;;;;;;5058168;28;20188;-80
2024/01/10 04:13:27;;;;;;;8.50;6.40;;;1.30;82.90;;;;;;5050793;28;20216;-82
2024/01/10 04:15:55;;;;;;;9.45;6.43;;;1.30;82.60;;;;;;5020501;28;20214;-82
2024/01/10 04:18:21;;;;;;;8.30;7.20;;;1.30;82.60;;;;;;5052262;28;20196;-83
2024/01/10 04:20:52;;;;;;;9.15;6.55;;;1.30;82.70;;;;;;5034819;28;20446;-82
2024/01/10 04:23:21;;;;;;;9.23;6.57;;;1.30;82.70;;;;;;5040359;28;20553;-82
2024/01/10 04:25:51;;;;;;;9.07;6.43;;;1.30;82.90;;;;;;5049136;28;20180;-83
2024/01/10 04:28:17;;;;;;;9.65;6.40;;;1.30;82.90;;;;;;5021211;28;20220;-83
2024/01/10 04:30:48;;;;;;;9.10;6.70;;;1.30;82.80;;;;;;5050748;28;20185;-82
2024/01/10 04:33:14;;;;;;;9.27;7.25;;;1.30;82.70;;;;;;5049525;28;20200;-81
2024/01/10 04:35:40;;;;;;;8.63;6.87;;;1.30;82.80;;;;;;5032638;28;20222;-82
2024/01/10 04:38:05;;;;;;;8.50;6.53;;;1.30;82.90;;;;;;5037582;28;20977;-84
2024/01/10 04:40:34;;;;;;;8.73;6.30;;;1.30;82.70;;;;;;5051868;28;20427;-83
2024/01/10 04:43:00;;;;;;;10.07;6.47;;;1.30;82.70;;;;;;5021593;28;20546;-82
2024/01/10 04:45:28;;;;;;;9.43;6.70;;;1.30;83.40;;;;;;5047486;28;20271;-81
2024/01/10 04:51:43;;;;;;;9.25;5.80;;;1.30;82.60;;;;;;5054201;28;20188;-82
2024/01/10 04:54:11;;;;;;;8.80;6.47;;;1.30;82.60;;;;;;5045583;28;20212;-82
2024/01/10 04:56:37;;;;;;;8.90;7.13;;;1.30;82.80;;;;;;5038532;28;20199;-82
2024/01/10 04:59:10;;;;;;;7.80;7.05;;;1.20;82.80;;;;;;5037507;28;20200;-83
2024/01/10 05:01:39;;;;;;;10.50;7.65;;;1.20;82.90;;;;;;5048796;28;20266;-83
2024/01/10 05:04:07;;;;;;;9.45;6.68;;;1.20;83.70;;;;;;5016519;28;20219;-82
2024/01/10 05:06:43;;;;;;;8.25;5.70;;;1.20;83.00;;;;;;5034769;28;20185;-82
2024/01/10 05:09:14;;;;;;;10.73;6.90;;;1.20;83.00;;;;;;5053801;28;20192;-82
2024/01/10 05:11:47;;;;;;;7.93;5.97;;;1.20;82.90;;;;;;5047615;28;20188;-82
2024/01/10 05:14:13;;;;;;;9.95;7.28;;;1.30;82.90;;;;;;5048733;28;20918;-83
2024/01/10 05:16:38;;;;;;;9.83;7.03;;;1.30;82.70;;;;;;5051355;28;20184;-82
2024/01/10 05:19:07;;;;;;;12.30;7.90;;;1.30;82.80;;;;;;5036714;28;20505;-81
2024/01/10 05:21:33;;;;;;;10.45;6.35;;;1.20;82.60;;;;;;5076853;28;20706;-81
2024/01/10 05:24:01;;;;;;;11.30;7.82;;;1.20;82.70;;;;;;5039956;28;20228;-83
2024/01/10 05:26:29;;;;;;;9.30;5.80;;;1.20;82.70;;;;;;5033464;28;20230;-82
2024/01/10 05:28:58;;;;;;;9.00;6.75;;;1.20;82.90;;;;;;5035895;28;20546;-82
2024/01/10 05:31:26;;;;;;;8.88;7.63;;;1.20;82.70;;;;;;5020820;28;20205;-82
2024/01/10 05:33:54;;;;;;;10.67;7.40;;;1.20;82.50;;;;;;5040674;28;20235;-83
2024/01/10 05:36:25;;;;;;;9.25;7.15;;;1.20;82.40;;;;;;5057229;28;20188;-82
2024/01/10 05:38:52;;;;;;;10.00;7.75;;;1.20;82.60;;;;;;5037116;28;20259;-82
2024/01/10 05:41:20;;;;;;;9.48;6.90;;;1.20;83.30;;;;;;5051959;28;20204;-82
2024/01/10 05:43:50;;;;;;;8.27;6.55;;;1.20;82.60;;;;;;5046918;28;20201;-82
2024/01/10 05:46:19;;;;;;;8.85;6.55;;;1.20;82.60;;;;;;5042205;28;20607;-82
2024/01/10 05:48:48;;;;;;;10.98;7.00;;;1.20;82.60;;;;;;5039357;28;20188;-82
2024/01/10 05:51:14;;;;;;;10.73;6.45;;;1.20;82.50;;;;;;5052148;28;20204;-80
2024/01/10 05:53:40;;;;;;;10.05;6.25;;;1.20;82.60;;;;;;5042722;28;20665;-83
2024/01/10 05:56:12;;;;;;;7.07;6.18;;;1.20;82.70;;;;;;5054737;28;20279;-82
2024/01/10 05:58:38;;;;;;;11.13;7.15;;;1.20;82.80;;;;;;5037497;28;20254;-82
2024/01/10 06:01:13;;;;;;;8.20;7.07;;;1.10;82.80;;;;;;5035591;28;20216;-82
2024/01/10 06:04:12;;;;;;;11.60;7.82;;;1.20;82.90;;;;;;5021315;28;20210;-82
2024/01/10 06:06:40;;;;;;;7.95;6.78;;;1.10;82.90;;;;;;5050997;28;20200;-83
2024/01/10 06:09:11;;;;;;;10.18;7.32;;;1.10;82.90;;;;;;5037448;28;20212;-82
2024/01/10 06:11:43;;;;;;;8.85;7.10;;;1.20;83.00;;;;;;5031669;28;20808;-83
2024/01/10 06:14:09;;;;;;;10.70;7.72;;;1.10;82.80;;;;;;5048803;28;20220;-81
2024/01/10 06:16:35;;;;;;;8.13;7.33;;;1.10;82.90;;;;;;5051767;28;20204;-81
2024/01/10 06:19:01;;;;;;;9.80;7.18;;;1.10;82.90;;;;;;5047449;28;20950;-82
2024/01/10 06:21:27;;;;;;;9.80;8.25;;;1.10;82.90;;;;;;5036764;28;20184;-81
2024/01/10 06:23:53;;;;;;;7.37;5.90;;;1.10;82.90;;;;;;5038142;28;20291;-81
2024/01/10 06:26:36;;;;;;;10.20;7.60;;;1.10;82.90;;;;;;5056124;28;20454;-84
2024/01/10 06:29:15;;;;;;;12.40;7.40;;;1.10;82.90;;;;;;5038093;28;20469;-82
2024/01/10 06:31:47;;;;;;;11.02;7.20;;;1.10;82.90;;;;;;5005606;28;20204;-82
2024/01/10 06:34:15;;;;;;;10.23;6.90;;;1.10;82.90;;;;;;5016116;28;20376;-82
2024/01/10 06:36:41;;;;;;;9.88;7.40;;;1.10;83.00;;;;;;5032523;28;20220;-82
2024/01/10 06:39:12;;;;;;;11.02;7.38;;;1.10;83.10;;;;;;5023029;28;20196;-82
2024/01/10 06:41:43;;;;;;;10.15;6.63;;;1.10;83.10;;;;;;5051831;28;20201;-82
2024/01/10 06:44:11;;;;;;;14.50;7.55;;;1.10;83.10;;;;;;5017565;28;20281;-82
2024/01/10 06:46:39;;;;;;;9.60;7.53;;;1.10;83.10;;;;;;5016266;28;20189;-81
2024/01/10 06:49:13;;;;;;;12.55;7.63;;;1.10;83.10;;;;;;5018095;28;20257;-82
2024/01/10 06:51:44;;;;;;;12.82;7.35;;;1.10;83.10;;;;;;5025033;28;20224;-82
2024/01/10 06:54:13;;;;;;;10.75;7.60;;;1.10;83.10;;;;;;5033289;28;20224;-79
2024/01/10 06:56:42;;;;;;;10.73;8.27;;;1.10;83.10;;;;;;5069489;28;20282;-81
2024/01/10 06:59:15;;;;;;;8.90;7.03;;;1.10;83.00;;;;;;5034805;28;20675;-82
2024/01/10 07:01:41;;;;;;;12.57;8.20;;;1.10;83.00;;;;;;5034943;28;20208;-81
2024/01/10 07:04:11;;;;;;;12.65;8.20;;;1.10;82.90;;;;;;5033969;28;20200;-81
2024/01/10 07:06:39;;;;;;;12.70;7.53;;;1.00;82.90;;;;;;5035492;28;20191;-81
2024/01/10 07:09:11;;;;;;;10.40;7.47;;;1.10;83.00;;;;;;5053796;28;20199;-80
2024/01/10 07:11:42;;;;;;;12.48;8.40;;;1.10;83.10;;;;;;5057031;28;20266;-83
2024/01/10 07:14:13;;;;;;;11.00;7.13;;;1.10;83.20;;;;;;5035429;28;20211;-81
2024/01/10 07:16:42;;;;;;;13.02;7.75;;;1.10;83.30;;;;;;5057616;28;20224;-81
2024/01/10 07:19:13;;;;;;;9.93;6.90;;;1.00;83.30;;;;;;5054752;28;20243;-82
2024/01/10 07:21:42;;;;;;;13.85;8.70;;;1.10;83.30;;;;;;5040030;28;20189;-82
2024/01/10 07:24:11;;;;;;;14.93;8.77;;;1.10;83.10;;;;;;5022015;28;20204;-82
2024/01/10 07:26:42;;;;;;;12.90;8.23;;;1.10;83.00;;;;;;5050965;28;20226;-81
2024/01/10 07:29:08;;;;;;;10.88;8.55;;;1.10;82.90;;;;;;5054798;28;20192;-81
2024/01/10 07:31:37;;;;;;;10.27;7.50;;;1.10;83.00;;;;;;5021173;28;20527;-81
2024/01/10 07:34:05;;;;;;;11.82;7.97;;;1.10;83.00;;;;;;5033767;28;20489;-82
2024/01/10 07:36:33;;;;;;;11.80;8.02;;;1.00;82.90;;;;;;5048639;28;20189;-83
2024/01/10 07:39:02;;;;;;;9.15;7.00;;;1.00;83.10;;;;;;5032359;28;20271;-82
2024/01/10 07:41:33;;;;;;;16.10;8.40;;;1.00;82.90;;;;;;5034154;28;20353;-82
2024/01/10 07:44:03;;;;;;;10.38;7.70;;;1.00;82.80;;;;;;5033278;28;20238;-82
2024/01/10 07:46:38;;;;;;;9.90;7.03;;;1.00;82.80;;;;;;5036340;28;20188;-81
2024/01/10 07:49:07;;;;;;;13.82;8.07;;;1.00;82.90;;;;;;5071910;28;20212;-82
2024/01/10 07:51:34;;;;;;;17.35;9.60;;;1.00;82.90;;;;;;5028326;28;20204;-83
2024/01/10 07:54:04;;;;;;;11.52;8.10;;;1.00;82.90;;;;;;5036721;28;20242;-82
2024/01/10 07:56:30;;;;;;;12.27;8.70;;;1.00;82.90;;;;;;5049912;28;20760;-82
2024/01/10 07:58:56;;;;;;;10.27;7.63;;;1.00;83.00;;;;;;5051280;28;20451;-81
2024/01/10 08:01:22;;;;;;;10.80;8.27;;;1.00;83.00;;;;;;5056059;28;20219;-80
2024/01/10 08:03:55;;;;;;;11.80;8.43;;;1.00;83.00;;;;;;5034900;28;20430;-82
2024/01/10 08:06:24;;;;;;;11.07;8.13;;;1.00;82.90;;;;;;5048848;28;20195;-82
2024/01/10 08:08:52;;;;;;;12.27;8.55;;;1.00;82.50;;;;;;5039988;28;20211;-81
2024/01/10 08:11:24;;;;;;;13.53;9.80;;;1.00;82.50;;;;;;5051329;28;20211;-82
2024/01/10 08:13:52;;;;;;;15.85;9.18;;;0.90;82.60;;;;;;5046519;28;20478;-81
2024/01/10 08:16:23;;;;;;;12.00;8.40;;;0.90;82.80;;;;;;5042091;28;20302;-83
2024/01/10 08:18:52;;;;;;;17.85;8.77;;;0.90;82.80;;;;;;5031534;28;20233;-81
2024/01/10 08:21:25;;;;;;;14.35;9.57;;;0.90;82.70;;;;;;5040874;28;20253;-82
2024/01/10 08:23:58;;;;;;;11.65;7.95;;;0.90;82.80;;;;;;5050134;28;20222;-82
2024/01/10 08:26:26;;;;;;;10.52;8.00;;;0.90;82.70;;;;;;5056678;28;20183;-81
2024/01/10 08:28:57;;;;;;;13.75;8.88;;;0.90;82.60;;;;;;5041894;28;20304;-83
2024/01/10 08:31:30;;;;;;;12.73;7.65;;;0.90;82.60;;;;;;5031888;28;20231;-80
2024/01/10 08:34:03;;;;;;;14.10;8.98;;;0.90;82.60;;;;;;5054496;28;20253;-82
2024/01/10 08:36:31;;;;;;;17.42;8.30;;;0.90;82.70;;;;;;5031920;28;20231;-81
2024/01/10 08:39:00;;;;;;;17.60;9.20;;;0.90;82.90;;;;;;5058836;28;20220;-80
2024/01/10 08:41:26;;;;;;;16.00;9.57;;;0.90;83.00;;;;;;5052667;28;20192;-82
2024/01/10 08:43:56;;;;;;;13.10;8.50;;;0.90;83.00;;;;;;5015087;28;20291;-82
2024/01/10 08:46:25;;;;;;;12.85;9.07;;;0.90;83.20;;;;;;5031927;28;20224;-83
2024/01/10 08:48:55;;;;;;;13.27;8.98;;;0.90;83.20;;;;;;5048142;28;20196;-82
2024/01/10 08:51:24;;;;;;;12.15;8.30;;;0.90;83.10;;;;;;5050960;28;20208;-83
2024/01/10 08:53:52;;;;;;;13.90;8.95;;;0.90;83.20;;;;;;5038282;28;20220;-82
2024/01/10 08:56:21;;;;;;;14.18;9.20;;;0.90;83.10;;;;;;5059796;28;20188;-81
2024/01/10 08:58:49;;;;;;;17.00;9.18;;;0.90;83.10;;;;;;5026712;28;20211;-82
2024/01/10 09:01:19;;;;;;;13.23;9.00;;;0.90;83.20;;;;;;5041256;28;20203;-82
2024/01/10 09:03:46;;;;;;;12.55;9.25;;;0.90;83.10;;;;;;5069217;28;20279;-81
2024/01/10 09:06:14;;;;;;;11.25;8.15;;;0.90;83.10;;;;;;5052367;28;20963;-82
2024/01/10 09:08:40;;;;;;;12.10;8.67;;;0.90;83.00;;;;;;5052399;28;20201;-82
2024/01/10 09:11:06;;;;;;;13.70;8.57;;;0.90;83.00;;;;;;5023830;28;20481;-82
2024/01/10 09:13:39;;;;;;;12.50;8.98;;;0.90;83.10;;;;;;5055011;28;20291;-82
2024/01/10 09:16:09;;;;;;;12.98;9.32;;;0.90;83.20;;;;;;5064168;28;20195;-82
2024/01/10 09:18:42;;;;;;;13.95;9.75;;;0.90;83.10;;;;;;5056831;28;20204;-82
2024/01/10 09:21:15;;;;;;;15.23;10.18;;;0.90;83.20;;;;;;5035607;28;20517;-81
2024/01/10 09:23:45;;;;;;;14.05;9.38;;;0.90;83.30;;;;;;5058293;28;20230;-82
2024/01/10 09:26:14;;;;;;;16.35;9.02;;;1.00;83.40;;;;;;5045036;28;20184;-82
2024/01/10 09:28:42;;;;;;;14.90;9.10;;;1.00;83.40;;;;;;5022625;28;20759;-82
2024/01/10 09:31:10;;;;;;;14.73;9.57;;;1.00;83.50;;;;;;5024643;28;20212;-81
2024/01/10 09:33:36;;;;;;;15.65;9.75;;;1.00;83.60;;;;;;5389743;22;20315;-86
2024/01/10 09:36:03;;;;;;;13.77;10.02;;;1.00;84.30;;;;;;5050657;28;20205;-85
2024/01/10 09:38:29;;;;;;;14.60;9.07;;;1.00;83.40;;;;;;5072627;28;20179;-90
2024/01/10 09:41:02;;;;;;;11.73;9.02;;;1.00;83.30;;;;;;5064798;28;20202;-87
2024/01/10 09:43:30;;;;;;;13.90;9.02;;;1.00;83.40;;;;;;5067579;28;20198;-87
2024/01/10 09:45:58;;;;;;;17.35;10.30;;;1.20;83.70;;;;;;5055093;28;20954;-83
2024/01/10 09:48:25;;;;;;;14.85;9.18;;;1.00;83.50;;;;;;5072206;28;20733;-86
2024/01/10 09:50:52;;;;;;;13.77;10.10;;;1.00;83.90;;;;;;5086959;28;20192;-88
2024/01/10 09:53:34;;;;;;;14.38;9.95;;;1.00;84.00;;;;;;5066000;28;20171;-85
2024/01/10 09:56:04;;;;;;;14.25;9.93;;;1.20;83.80;;;;;;5086467;28;20568;-87
2024/01/10 09:58:31;;;;;;;12.90;9.52;;;1.00;83.70;;;;;;5073093;28;20223;-89
2024/01/10 10:00:57;;;;;;;15.13;9.70;;;1.00;83.70;;;;;;5069850;28;20557;-87
2024/01/10 10:03:23;;;;;;;16.47;9.00;;;1.00;83.80;;;;;;5076494;28;20199;-84
2024/01/10 10:05:49;;;;;;;13.07;10.60;;;1.00;83.90;;;;;;5072565;28;20441;-87
2024/01/10 10:08:22;;;;;;;17.15;8.80;;;1.00;83.80;;;;;;5073450;28;20196;-86
2024/01/10 10:10:55;;;;;;;16.25;9.70;;;1.00;83.80;;;;;;5066305;28;20179;-86
2024/01/10 10:13:30;;;;;;;16.92;8.88;;;1.00;83.80;;;;;;5036134;28;20372;-89
2024/01/10 10:16:03;;;;;;;14.60;9.45;;;1.00;83.90;;;;;;5049172;28;20614;-89
2024/01/10 10:18:30;;;;;;;14.80;9.32;;;1.00;84.00;;;;;;5074572;28;20206;-86
2024/01/10 10:21:11;;;;;;;19.73;10.88;;;1.00;84.00;;;;;;5063352;28;20228;-84
2024/01/10 10:23:39;;;;;;;15.60;10.30;;;1.00;84.00;;;;;;5093685;28;20262;-87
2024/01/10 10:26:22;;;;;;;15.60;9.90;;;1.00;84.00;;;;;;5056868;28;20287;-87
2024/01/10 10:28:49;;;;;;;15.50;10.48;;;1.00;83.80;;;;;;5086898;28;20198;-88
2024/01/10 10:31:17;;;;;;;13.32;8.23;;;1.10;84.20;;;;;;5066340;28;20236;-87
2024/01/10 10:33:46;;;;;;;16.65;11.50;;;1.00;84.10;;;;;;5075453;28;20215;-84
2024/01/10 10:36:14;;;;;;;15.95;10.68;;;1.10;84.10;;;;;;5060110;28;20574;-87
2024/01/10 10:38:40;;;;;;;15.05;9.88;;;1.30;84.50;;;;;;5055871;28;20694;-88
2024/01/10 10:41:10;;;;;;;13.77;8.48;;;1.10;84.40;;;;;;5073983;28;20740;-86
2024/01/10 10:43:37;;;;;;;13.20;8.70;;;1.10;84.20;;;;;;5059422;28;20513;-88
2024/01/10 10:46:14;;;;;;;13.77;8.63;;;1.10;84.20;;;;;;5055314;28;20191;-88
2024/01/10 10:48:42;;;;;;;15.98;9.15;;;1.10;84.20;;;;;;5073297;28;20936;-87
2024/01/10 10:51:29;;;;;;;13.82;9.20;;;1.10;84.40;;;;;;5041092;28;20275;-86
2024/01/10 10:53:59;;;;;;;14.63;9.50;;;1.10;84.40;;;;;;5078800;28;20211;-87
2024/01/10 10:59:26;;;;;;;13.85;9.57;;;1.10;84.50;;;;;;5066009;28;20199;-83
2024/01/10 11:01:54;;;;;;;15.45;10.13;;;1.10;84.50;;;;;;5084962;28;20186;-87
2024/01/10 11:04:21;;;;;;;13.73;8.63;;;1.40;84.80;;;;;;5060397;28;20720;-84
2024/01/10 11:06:47;;;;;;;14.25;9.68;;;1.10;84.50;;;;;;5043943;28;20195;-85
2024/01/10 11:09:17;;;;;;;17.05;11.32;;;1.20;84.50;;;;;;5089210;28;20210;-86
2024/01/10 11:11:58;;;;;;;12.02;9.25;;;1.10;84.50;;;;;;5054955;28;20275;-86
2024/01/10 11:14:29;;;;;;;16.17;9.35;;;1.20;84.70;;;;;;5053441;28;20218;-89
2024/01/10 11:17:08;;;;;;;16.20;11.23;;;1.10;84.60;;;;;;5054791;28;20239;-88
2024/01/10 11:19:43;;;;;;;16.00;10.35;;;1.20;84.70;;;;;;5081490;28;20262;-84
2024/01/10 11:22:24;;;;;;;14.50;9.77;;;1.20;84.70;;;;;;5071382;28;20198;-86
2024/01/10 11:24:51;;;;;;;14.25;9.40;;;1.20;84.50;;;;;;5078274;28;20199;-86
2024/01/10 11:27:18;;;;;;;16.63;10.27;;;1.20;84.60;;;;;;5051489;28;20794;-86
2024/01/10 11:29:46;;;;;;;15.60;10.02;;;1.20;84.70;;;;;;5068294;28;20195;-83
2024/01/10 11:32:17;;;;;;;17.95;10.57;;;1.20;84.60;;;;;;5071110;28;20237;-87
2024/01/10 11:34:55;;;;;;;13.68;10.20;;;1.20;84.70;;;;;;5065950;28;20314;-88
2024/01/10 11:37:21;;;;;;;13.35;8.82;;;1.20;84.60;;;;;;5045932;28;20195;-85
2024/01/10 11:39:47;;;;;;;15.97;10.03;;;1.20;84.60;;;;;;5051708;28;20219;-84
2024/01/10 11:42:42;;;;;;;12.77;9.30;;;1.20;84.70;;;;;;5049705;28;20428;-86
2024/01/10 11:45:08;;;;;;;17.35;10.13;;;1.30;85.00;;;;;;5068435;28;20195;-87
2024/01/10 11:47:34;;;;;;;14.88;9.88;;;1.60;85.50;;;;;;5053661;28;20212;-85
2024/01/10 11:50:03;;;;;;;15.30;10.07;;;1.30;85.90;;;;;;5052990;28;20194;-87
2024/01/10 11:52:34;;;;;;;16.02;10.13;;;1.30;85.00;;;;;;5072632;28;20202;-88
2024/01/10 11:55:00;;;;;;;16.80;9.38;;;1.30;85.20;;;;;;5047249;28;20242;-85
2024/01/10 11:57:28;;;;;;;11.05;8.20;;;1.30;85.30;;;;;;5087375;28;20195;-87
2024/01/10 11:59:56;;;;;;;15.05;9.18;;;1.30;85.40;;;;;;5049256;28;20195;-89
2024/01/10 12:02:26;;;;;;;16.83;9.90;;;1.70;85.80;;;;;;5061059;28;20355;-87
2024/01/10 12:04:56;;;;;;;13.50;9.10;;;1.30;85.40;;;;;;5050544;28;20187;-86
2024/01/10 12:07:23;;;;;;;16.00;10.07;;;1.30;85.30;;;;;;5069657;28;20320;-87
2024/01/10 12:09:49;;;;;;;18.95;9.45;;;1.40;85.40;;;;;;5070705;28;20222;-84
2024/01/10 12:12:16;;;;;;;14.30;9.35;;;1.70;85.70;;;;;;5081241;28;20512;-85
2024/01/10 12:14:44;;;;;;;12.70;9.80;;;1.40;85.20;;;;;;5061809;28;20218;-90
2024/01/10 12:17:10;;;;;;;15.68;9.27;;;1.40;85.10;;;;;;5065332;28;20199;-84
2024/01/10 12:19:41;;;;;;;14.65;9.88;;;1.40;85.20;;;;;;5055005;28;20222;-87
2024/01/10 12:22:10;;;;;;;16.38;10.18;;;1.40;85.10;;;;;;5071832;28;20235;-89
2024/01/10 12:24:52;;;;;;;16.48;9.55;;;1.40;85.00;;;;;;5071196;28;20210;-86
2024/01/10 12:27:19;;;;;;;11.77;9.27;;;1.40;85.00;;;;;;5096849;28;20201;-88
2024/01/10 12:29:51;;;;;;;14.27;9.38;;;1.40;84.90;;;;;;5061268;28;20195;-86
2024/01/10 12:32:22;;;;;;;15.75;9.77;;;1.40;85.00;;;;;;5062131;28;20207;-89
2024/01/10 12:34:48;;;;;;;13.38;9.50;;;1.40;85.30;;;;;;5057676;28;20598;-86
2024/01/10 12:37:16;;;;;;;16.87;10.57;;;1.40;85.60;;;;;;5056507;28;20247;-84
2024/01/10 12:39:43;;;;;;;13.90;9.05;;;1.40;85.80;;;;;;5088333;28;20537;-86
2024/01/10 12:42:09;;;;;;;16.30;9.30;;;1.50;86.00;;;;;;5075785;28;20183;-88
2024/01/10 12:44:35;;;;;;;12.32;9.30;;;1.50;86.00;;;;;;5086742;28;20280;-86
2024/01/10 12:47:02;;;;;;;17.77;10.63;;;1.50;86.10;;;;;;5062443;28;20217;-87
2024/01/10 12:49:28;;;;;;;13.02;9.10;;;1.50;86.00;;;;;;5088630;28;20187;-89
2024/01/10 12:51:54;;;;;;;13.98;8.90;;;1.50;85.90;;;;;;5044315;28;20593;-87
2024/01/10 12:54:20;;;;;;;13.15;9.00;;;1.50;85.80;;;;;;5057081;28;20223;-88
2024/01/10 12:56:49;;;;;;;16.02;9.88;;;1.50;85.90;;;;;;5070317;28;20232;-88
2024/01/10 12:59:15;;;;;;;13.38;8.90;;;1.50;86.10;;;;;;5070468;28;20183;-84
2024/01/10 13:01:43;;;;;;;16.73;9.88;;;1.50;86.20;;;;;;5090268;28;20179;-85
2024/01/10 13:04:11;;;;;;;12.30;9.40;;;1.50;86.10;;;;;;5065864;28;20276;-84
2024/01/10 13:06:41;;;;;;;12.75;9.00;;;1.50;86.10;;;;;;5057181;28;20497;-87